createdAt,value
2022-08-03T00:01:35.749Z,19.10
2022-08-03T00:04:03.122Z,19.00
2022-08-03T00:06:33.753Z,19.00
2022-08-03T00:09:07.451Z,19.00
2022-08-03T00:11:35.476Z,19.00
2022-08-03T00:14:02.735Z,19.00
2022-08-03T00:16:29.705Z,18.90
2022-08-03T00:18:56.533Z,18.90
2022-08-03T00:21:23.450Z,18.90
2022-08-03T00:23:51.498Z,18.90
2022-08-03T00:26:20.534Z,18.80
2022-08-03T00:28:47.653Z,18.80
2022-08-03T00:31:14.531Z,18.80
2022-08-03T00:33:58.083Z,18.80
2022-08-03T00:36:27.242Z,18.80
2022-08-03T00:38:54.364Z,18.80
2022-08-03T00:41:21.310Z,18.70
2022-08-03T00:43:48.533Z,18.70
2022-08-03T00:46:21.072Z,18.70
2022-08-03T00:48:51.808Z,18.60
2022-08-03T00:51:20.356Z,18.60
2022-08-03T00:53:47.300Z,18.60
2022-08-03T00:56:18.469Z,18.50
2022-08-03T00:58:46.528Z,18.50
2022-08-03T01:01:14.651Z,18.50
2022-08-03T01:03:41.931Z,18.50
2022-08-03T01:06:19.312Z,18.40
2022-08-03T01:09:07.546Z,18.40
2022-08-03T01:12:01.131Z,18.40
2022-08-03T01:14:32.596Z,18.40
2022-08-03T01:17:11.814Z,18.30
2022-08-03T01:19:44.952Z,18.30
2022-08-03T01:23:00.811Z,18.30
2022-08-03T01:25:46.103Z,18.30
2022-08-03T01:28:39.153Z,18.30
2022-08-03T01:31:08.765Z,18.30
2022-08-03T01:33:40.308Z,18.30
2022-08-03T01:36:15.452Z,18.30
2022-08-03T01:38:47.616Z,18.20
2022-08-03T01:41:20.239Z,18.30
2022-08-03T01:44:27.174Z,18.30
2022-08-03T01:46:39.095Z,18.20
2022-08-03T01:49:10.451Z,18.30
2022-08-03T01:51:56.607Z,18.20
2022-08-03T01:54:34.664Z,18.20
2022-08-03T01:57:03.071Z,18.20
2022-08-03T01:59:32.501Z,18.20
2022-08-03T02:02:15.472Z,18.20
2022-08-03T02:04:49.136Z,18.20
2022-08-03T02:07:17.049Z,18.20
2022-08-03T02:09:46.929Z,18.20
2022-08-03T02:12:16.082Z,18.10
2022-08-03T02:14:45.802Z,18.10
2022-08-03T02:17:14.060Z,18.10
2022-08-03T02:19:43.100Z,18.10
2022-08-03T02:22:12.450Z,18.00
2022-08-03T02:24:40.268Z,18.00
2022-08-03T02:27:23.748Z,17.90
2022-08-03T02:29:58.771Z,17.90
2022-08-03T02:32:30.821Z,17.90
2022-08-03T02:35:00.688Z,17.80
2022-08-03T02:37:31.671Z,17.80
2022-08-03T02:40:03.385Z,17.80
2022-08-03T02:42:32.923Z,17.80
2022-08-03T02:45:02.856Z,17.80
2022-08-03T02:47:54.191Z,17.80
2022-08-03T02:50:20.448Z,17.70
2022-08-03T02:52:49.240Z,17.70
2022-08-03T02:55:17.372Z,17.70
2022-08-03T02:57:46.532Z,17.70
2022-08-03T03:00:19.521Z,17.60
2022-08-03T03:02:58.172Z,17.60
2022-08-03T03:05:54.338Z,17.60
2022-08-03T03:08:18.945Z,17.60
2022-08-03T03:10:55.427Z,17.60
2022-08-03T03:13:23.399Z,17.60
2022-08-03T03:15:52.119Z,17.60
2022-08-03T03:18:22.884Z,17.60
2022-08-03T03:20:52.613Z,17.60
2022-08-03T03:23:22.200Z,17.60
2022-08-03T03:25:49.684Z,17.60
2022-08-03T03:28:16.791Z,17.60
2022-08-03T03:30:44.261Z,17.60
2022-08-03T03:33:12.006Z,17.70
2022-08-03T03:35:41.248Z,17.60
2022-08-03T03:38:09.393Z,17.70
2022-08-03T03:40:37.558Z,17.70
2022-08-03T03:43:08.275Z,17.80
2022-08-03T03:45:35.553Z,17.80
2022-08-03T03:48:04.842Z,17.90
2022-08-03T03:50:33.410Z,17.90
2022-08-03T03:53:01.188Z,18.00
2022-08-03T03:55:28.552Z,18.00
2022-08-03T03:57:55.472Z,18.00
2022-08-03T04:00:23.214Z,18.00
2022-08-03T04:02:50.014Z,18.10
2022-08-03T04:05:35.322Z,18.10
2022-08-03T04:08:26.824Z,18.10
2022-08-03T04:11:20.516Z,18.10
2022-08-03T04:14:19.296Z,18.10
2022-08-03T04:16:53.524Z,18.10
2022-08-03T04:19:28.522Z,18.10
2022-08-03T04:21:59.182Z,18.10
2022-08-03T04:24:33.716Z,18.10
2022-08-03T04:27:04.837Z,18.10
2022-08-03T04:29:34.958Z,18.10
2022-08-03T04:32:08.083Z,18.10
2022-08-03T04:34:35.634Z,18.10
2022-08-03T04:37:10.889Z,18.10
2022-08-03T04:39:41.955Z,18.10
2022-08-03T04:42:11.576Z,18.10
2022-08-03T04:44:41.952Z,18.10
2022-08-03T04:47:09.151Z,18.10
2022-08-03T04:49:39.939Z,18.10
2022-08-03T04:52:10.212Z,18.20
2022-08-03T04:54:48.831Z,18.20
2022-08-03T04:57:22.519Z,18.30
2022-08-03T05:00:02.623Z,18.30
2022-08-03T05:02:31.382Z,18.20
2022-08-03T05:04:58.638Z,18.30
2022-08-03T05:07:25.579Z,18.40
2022-08-03T05:10:01.563Z,18.40
2022-08-03T05:12:32.885Z,18.40
2022-08-03T05:15:01.185Z,18.50
2022-08-03T05:17:28.709Z,18.60
2022-08-03T05:19:56.069Z,18.60
2022-08-03T05:22:23.935Z,18.70
2022-08-03T05:24:51.093Z,18.70
2022-08-03T05:27:19.457Z,18.80
2022-08-03T05:29:47.526Z,18.80
2022-08-03T05:32:14.648Z,18.90
2022-08-03T05:34:42.098Z,19.00
2022-08-03T05:37:09.078Z,19.00
2022-08-03T05:39:36.661Z,19.20
2022-08-03T05:42:03.677Z,19.20
2022-08-03T05:44:31.666Z,19.30
2022-08-03T05:46:59.310Z,19.30
2022-08-03T05:49:26.426Z,19.40
2022-08-03T05:52:00.236Z,19.50
2022-08-03T05:54:57.125Z,19.60
2022-08-03T05:57:26.074Z,19.60
2022-08-03T05:59:54.635Z,19.70
2022-08-03T06:02:25.576Z,19.80
2022-08-03T06:04:52.367Z,20.00
2022-08-03T06:07:19.187Z,20.00
2022-08-03T06:10:34.435Z,20.10
2022-08-03T06:12:36.167Z,20.20
2022-08-03T06:15:04.671Z,20.20
2022-08-03T06:17:37.483Z,20.30
2022-08-03T06:20:05.774Z,20.40
2022-08-03T06:22:32.602Z,20.50
2022-08-03T06:25:04.024Z,20.50
2022-08-03T06:27:37.351Z,20.70
2022-08-03T06:30:05.488Z,20.80
2022-08-03T06:32:32.473Z,21.00
2022-08-03T06:35:00.008Z,21.10
2022-08-03T06:37:27.209Z,21.60
2022-08-03T06:39:54.424Z,22.40
2022-08-03T06:42:22.661Z,23.10
2022-08-03T06:44:49.868Z,23.50
2022-08-03T06:47:17.385Z,24.00
2022-08-03T06:49:44.343Z,24.50
2022-08-03T06:52:37.847Z,25.20
2022-08-03T06:55:06.327Z,26.30
2022-08-03T06:57:33.311Z,26.90
2022-08-03T07:00:09.141Z,27.20
2022-08-03T07:02:38.840Z,27.40
2022-08-03T07:05:06.943Z,27.80
2022-08-03T07:07:33.881Z,28.10
2022-08-03T07:10:02.397Z,28.30
2022-08-03T07:12:31.184Z,28.40
2022-08-03T07:15:02.269Z,28.60
2022-08-03T07:17:32.970Z,28.80
2022-08-03T07:20:00.924Z,29.30
2022-08-03T07:22:28.516Z,29.70
2022-08-03T07:24:56.805Z,30.20
2022-08-03T07:27:23.945Z,30.90
2022-08-03T07:29:50.773Z,31.50
2022-08-03T07:32:18.056Z,32.10
2022-08-03T07:34:45.134Z,32.40
2022-08-03T07:37:12.016Z,32.40
2022-08-03T07:39:38.867Z,32.10
2022-08-03T07:42:05.854Z,31.60
2022-08-03T07:44:32.747Z,31.40
2022-08-03T07:47:00.001Z,31.20
2022-08-03T07:49:30.470Z,31.30
2022-08-03T07:52:16.431Z,32.10
2022-08-03T07:54:43.642Z,32.80
2022-08-03T07:57:10.513Z,33.50
2022-08-03T07:59:49.102Z,34.00
2022-08-03T08:02:24.309Z,34.60
2022-08-03T08:04:51.146Z,35.10
2022-08-03T08:07:18.092Z,35.20
2022-08-03T08:09:47.464Z,35.10
2022-08-03T08:12:15.178Z,34.90
2022-08-03T08:14:45.737Z,34.80
2022-08-03T08:17:13.170Z,34.80
2022-08-03T08:19:42.790Z,35.00
2022-08-03T08:22:18.611Z,35.50
2022-08-03T08:24:56.619Z,36.10
2022-08-03T08:27:23.918Z,36.40
2022-08-03T08:29:54.504Z,36.40
2022-08-03T08:32:23.768Z,36.40
2022-08-03T08:34:51.107Z,36.70
2022-08-03T08:37:18.132Z,37.10
2022-08-03T08:39:44.947Z,37.00
2022-08-03T08:42:11.850Z,36.70
2022-08-03T08:44:39.281Z,36.60
2022-08-03T08:47:08.158Z,36.90
2022-08-03T08:49:38.705Z,37.20
2022-08-03T08:52:24.801Z,37.20
2022-08-03T08:55:05.676Z,37.10
2022-08-03T08:57:43.148Z,37.00
2022-08-03T09:00:17.339Z,36.70
2022-08-03T09:03:01.918Z,36.60
2022-08-03T09:05:55.691Z,36.60
2022-08-03T09:08:23.335Z,36.80
2022-08-03T09:10:50.209Z,36.80
2022-08-03T09:13:17.482Z,36.80
2022-08-03T09:15:57.190Z,36.80
2022-08-03T09:18:32.777Z,37.00
2022-08-03T09:21:32.914Z,37.20
2022-08-03T09:24:04.844Z,37.30
2022-08-03T09:26:35.372Z,37.70
2022-08-03T09:29:14.354Z,38.10
2022-08-03T09:31:46.964Z,38.20
2022-08-03T09:34:18.213Z,37.70
2022-08-03T09:36:50.735Z,37.30
2022-08-03T09:39:30.131Z,37.10
2022-08-03T09:42:17.211Z,37.10
2022-08-03T09:44:50.063Z,37.10
2022-08-03T09:47:31.969Z,36.90
2022-08-03T09:50:05.033Z,36.70
2022-08-03T09:52:49.597Z,36.50
2022-08-03T09:56:31.555Z,36.20
2022-08-03T09:58:09.623Z,35.80
2022-08-03T10:00:54.817Z,35.20
2022-08-03T10:03:23.464Z,34.90
2022-08-03T10:05:50.363Z,34.70
2022-08-03T10:08:20.481Z,34.60
2022-08-03T10:10:50.487Z,34.40
2022-08-03T10:13:18.746Z,34.40
2022-08-03T10:16:23.556Z,34.40
2022-08-03T10:18:33.686Z,34.40
2022-08-03T10:21:10.692Z,34.50
2022-08-03T10:23:40.686Z,34.80
2022-08-03T10:26:11.672Z,35.20
2022-08-03T10:28:45.240Z,35.30
2022-08-03T10:31:14.167Z,35.30
2022-08-03T10:33:51.591Z,35.40
2022-08-03T10:36:23.682Z,35.80
2022-08-03T10:38:53.125Z,36.20
2022-08-03T10:41:21.928Z,36.90
2022-08-03T10:44:02.845Z,37.60
2022-08-03T10:46:29.703Z,38.60
2022-08-03T10:48:57.788Z,39.50
2022-08-03T10:51:29.105Z,40.20
2022-08-03T10:53:56.000Z,40.30
2022-08-03T10:56:52.332Z,40.50
2022-08-03T10:59:28.061Z,41.00
2022-08-03T11:01:59.788Z,41.10
2022-08-03T11:04:30.169Z,41.10
2022-08-03T11:07:16.746Z,41.30
2022-08-03T11:09:47.625Z,41.60
2022-08-03T11:12:32.654Z,41.90
2022-08-03T11:15:05.673Z,42.20
2022-08-03T11:17:33.836Z,42.40
2022-08-03T11:20:14.001Z,42.40
2022-08-03T11:22:51.543Z,42.50
2022-08-03T11:25:34.831Z,42.60
2022-08-03T11:28:25.314Z,42.70
2022-08-03T11:30:52.432Z,42.60
2022-08-03T11:33:32.755Z,42.50
2022-08-03T11:36:01.548Z,42.50
2022-08-03T11:38:28.457Z,42.50
2022-08-03T11:40:55.577Z,42.50
2022-08-03T11:43:22.431Z,42.50
2022-08-03T11:46:05.515Z,42.80
2022-08-03T11:48:37.838Z,43.10
2022-08-03T11:51:07.063Z,43.30
2022-08-03T11:53:42.167Z,43.40
2022-08-03T11:56:13.050Z,43.40
2022-08-03T11:59:16.469Z,43.50
2022-08-03T12:01:35.543Z,43.30
2022-08-03T12:04:06.205Z,42.70
2022-08-03T12:06:55.087Z,42.00
2022-08-03T12:09:22.450Z,41.40
2022-08-03T12:11:59.349Z,41.00
2022-08-03T12:14:50.841Z,40.90
2022-08-03T12:17:15.365Z,40.70
2022-08-03T12:19:43.341Z,40.60
2022-08-03T12:22:10.179Z,40.50
2022-08-03T12:24:46.597Z,40.60
2022-08-03T12:27:24.053Z,40.90
2022-08-03T12:29:59.366Z,41.30
2022-08-03T12:32:28.237Z,41.30
2022-08-03T12:35:00.203Z,41.30
2022-08-03T12:37:28.118Z,41.30
2022-08-03T12:40:02.107Z,41.00
2022-08-03T12:42:34.992Z,40.90
2022-08-03T12:45:31.948Z,41.30
2022-08-03T12:48:02.404Z,41.60
2022-08-03T12:50:31.962Z,41.60
2022-08-03T12:53:00.092Z,41.80
2022-08-03T12:55:56.592Z,41.90
2022-08-03T12:58:34.009Z,41.90
2022-08-03T13:01:04.989Z,42.10
2022-08-03T13:03:49.565Z,42.10
2022-08-03T13:06:25.527Z,41.90
2022-08-03T13:09:04.473Z,41.90
2022-08-03T13:11:57.660Z,42.10
2022-08-03T13:14:20.339Z,42.30
2022-08-03T13:16:48.447Z,42.10
2022-08-03T13:19:16.201Z,42.10
2022-08-03T13:22:02.169Z,42.00
2022-08-03T13:24:32.538Z,42.00
2022-08-03T13:27:00.182Z,42.00
2022-08-03T13:29:27.001Z,42.10
2022-08-03T13:31:54.063Z,42.10
2022-08-03T13:34:23.451Z,42.00
2022-08-03T13:37:09.439Z,41.70
2022-08-03T13:39:58.109Z,41.60
2022-08-03T13:42:24.241Z,41.40
2022-08-03T13:44:51.126Z,40.90
2022-08-03T13:47:18.274Z,40.60
2022-08-03T13:49:59.780Z,40.60
2022-08-03T13:52:30.415Z,40.80
2022-08-03T13:54:57.238Z,41.30
2022-08-03T13:58:11.728Z,41.50
2022-08-03T14:00:12.211Z,41.50
2022-08-03T14:02:39.139Z,41.40
2022-08-03T14:05:06.160Z,41.10
2022-08-03T14:07:32.979Z,40.50
2022-08-03T14:10:01.601Z,40.20
2022-08-03T14:12:28.723Z,40.20
2022-08-03T14:14:58.262Z,40.10
2022-08-03T14:17:28.018Z,39.80
2022-08-03T14:20:36.774Z,39.70
2022-08-03T14:22:56.946Z,39.60
2022-08-03T14:25:23.832Z,39.50
2022-08-03T14:27:50.785Z,39.30
2022-08-03T14:30:17.898Z,39.00
2022-08-03T14:32:44.907Z,38.70
2022-08-03T14:35:12.029Z,38.40
2022-08-03T14:37:38.942Z,38.00
2022-08-03T14:40:06.706Z,37.60
2022-08-03T14:42:33.637Z,37.10
2022-08-03T14:45:03.595Z,36.80
2022-08-03T14:47:34.447Z,36.90
2022-08-03T14:50:35.702Z,36.90
2022-08-03T14:53:07.766Z,37.00
2022-08-03T14:55:38.033Z,37.20
2022-08-03T14:58:19.597Z,37.30
2022-08-03T15:00:49.279Z,37.40
2022-08-03T15:03:16.779Z,37.40
2022-08-03T15:05:44.533Z,37.40
2022-08-03T15:08:11.799Z,37.20
2022-08-03T15:10:40.606Z,36.90
2022-08-03T15:13:12.939Z,36.80
2022-08-03T15:15:40.929Z,36.60
2022-08-03T15:18:08.091Z,36.40
2022-08-03T15:20:51.058Z,36.10
2022-08-03T15:23:18.696Z,36.00
2022-08-03T15:26:27.885Z,35.80
2022-08-03T15:28:33.177Z,35.80
2022-08-03T15:31:00.909Z,35.70
2022-08-03T15:33:28.551Z,35.60
2022-08-03T15:35:56.655Z,35.40
2022-08-03T15:38:25.966Z,35.00
2022-08-03T15:40:56.794Z,34.70
2022-08-03T15:43:24.076Z,34.40
2022-08-03T15:46:19.215Z,34.20
2022-08-03T15:48:39.170Z,34.00
2022-08-03T15:51:07.245Z,33.70
2022-08-03T15:53:34.210Z,33.40
2022-08-03T15:56:09.851Z,33.20
2022-08-03T15:59:09.341Z,32.90
2022-08-03T16:01:28.861Z,32.60
2022-08-03T16:03:55.759Z,32.30
2022-08-03T16:06:29.531Z,32.00
2022-08-03T16:09:01.823Z,31.60
2022-08-03T16:11:28.809Z,31.40
2022-08-03T16:14:13.257Z,31.20
2022-08-03T16:16:42.628Z,31.10
2022-08-03T16:19:09.568Z,31.00
2022-08-03T16:21:47.351Z,30.90
2022-08-03T16:24:17.314Z,30.80
2022-08-03T16:26:46.834Z,30.70
2022-08-03T16:29:22.706Z,30.60
2022-08-03T16:31:50.978Z,30.50
2022-08-03T16:34:18.249Z,30.40
2022-08-03T16:36:45.883Z,30.30
2022-08-03T16:39:12.952Z,30.20
2022-08-03T16:41:54.360Z,30.10
2022-08-03T16:44:27.396Z,30.00
2022-08-03T16:46:54.563Z,29.90
2022-08-03T16:49:53.858Z,29.80
2022-08-03T16:52:08.282Z,29.70
2022-08-03T16:54:35.282Z,29.60
2022-08-03T16:57:02.242Z,29.50
2022-08-03T16:59:36.322Z,29.40
2022-08-03T17:02:09.872Z,29.30
2022-08-03T17:04:40.232Z,29.30
2022-08-03T17:07:08.829Z,29.20
2022-08-03T17:09:38.826Z,29.10
2022-08-03T17:12:06.368Z,29.00
2022-08-03T17:14:34.096Z,28.90
2022-08-03T17:17:04.138Z,28.90
2022-08-03T17:19:32.522Z,28.80
2022-08-03T17:22:09.098Z,28.70
2022-08-03T17:24:41.022Z,28.70
2022-08-03T17:28:41.934Z,28.60
2022-08-03T17:30:07.757Z,28.50
2022-08-03T17:32:42.812Z,28.40
2022-08-03T17:35:20.779Z,28.30
2022-08-03T17:37:58.446Z,28.20
2022-08-03T17:40:31.471Z,28.20
2022-08-03T17:43:00.755Z,28.10
2022-08-03T17:45:52.285Z,28.00
2022-08-03T17:48:18.620Z,28.00
2022-08-03T17:51:15.489Z,27.90
2022-08-03T17:53:50.183Z,27.90
2022-08-03T17:56:44.682Z,27.90
2022-08-03T17:59:15.852Z,27.80
2022-08-03T18:02:27.959Z,27.70
2022-08-03T18:05:16.685Z,27.70
2022-08-03T18:08:00.850Z,27.60
2022-08-03T18:10:35.301Z,27.60
2022-08-03T18:13:12.557Z,27.50
2022-08-03T18:15:46.609Z,27.50
2022-08-03T18:18:29.321Z,27.50
2022-08-03T18:21:04.645Z,27.40
2022-08-03T18:23:36.835Z,27.40
2022-08-03T18:26:10.811Z,27.30
2022-08-03T18:28:40.627Z,27.20
2022-08-03T18:31:11.552Z,27.20
2022-08-03T18:34:18.322Z,27.10
2022-08-03T18:36:30.416Z,27.10
2022-08-03T18:38:59.669Z,27.00
2022-08-03T18:41:32.172Z,26.90
2022-08-03T18:44:07.310Z,26.90
2022-08-03T18:46:41.126Z,26.80
2022-08-03T18:49:30.853Z,26.80
2022-08-03T18:52:12.257Z,26.60
2022-08-03T18:55:09.414Z,26.50
2022-08-03T18:57:54.660Z,26.40
2022-08-03T19:00:23.890Z,26.30
2022-08-03T19:03:05.932Z,26.30
2022-08-03T19:05:53.746Z,26.20
2022-08-03T19:08:48.183Z,26.10
2022-08-03T19:12:11.059Z,26.00
2022-08-03T19:14:23.130Z,25.90
2022-08-03T19:17:07.168Z,25.70
2022-08-03T19:19:43.481Z,25.70
2022-08-03T19:22:16.558Z,25.60
2022-08-03T19:24:46.359Z,25.50
2022-08-03T19:27:14.238Z,25.40
2022-08-03T19:29:59.408Z,25.30
2022-08-03T19:32:32.454Z,25.20
2022-08-03T19:35:04.147Z,25.10
2022-08-03T19:37:37.994Z,25.00
2022-08-03T19:40:19.804Z,25.00
2022-08-03T19:42:50.097Z,24.90
2022-08-03T19:46:06.335Z,24.80
2022-08-03T19:48:17.520Z,24.70
2022-08-03T19:50:45.402Z,24.60
2022-08-03T19:53:13.124Z,24.50
2022-08-03T19:55:48.973Z,24.50
2022-08-03T19:58:28.432Z,24.40
2022-08-03T20:00:55.898Z,24.30
2022-08-03T20:03:26.501Z,24.20
2022-08-03T20:08:44.090Z,24.00
2022-08-03T20:11:11.831Z,24.00
2022-08-03T20:13:38.900Z,23.90
2022-08-03T20:16:06.316Z,23.90
2022-08-03T20:18:39.289Z,23.80
2022-08-03T20:21:14.790Z,23.70
2022-08-03T20:23:58.070Z,23.70
2022-08-03T20:26:31.004Z,23.60
2022-08-03T20:29:09.907Z,23.50
2022-08-03T20:31:37.646Z,23.40
2022-08-03T20:34:06.270Z,23.40
2022-08-03T20:36:33.244Z,23.30
2022-08-03T20:39:00.250Z,23.20
2022-08-03T20:41:27.287Z,23.20
2022-08-03T20:43:54.369Z,23.10
2022-08-03T20:46:31.053Z,23.10
2022-08-03T20:49:05.333Z,23.00
2022-08-03T20:51:52.707Z,23.00
2022-08-03T20:54:31.365Z,22.90
2022-08-03T20:57:03.765Z,22.80
2022-08-03T20:59:47.639Z,22.80
2022-08-03T21:02:29.545Z,22.70
2022-08-03T21:04:58.555Z,22.70
2022-08-03T21:07:45.991Z,22.70
2022-08-03T21:10:16.745Z,22.70
2022-08-03T21:13:03.561Z,24.10
2022-08-03T21:13:22.600Z,22.60
2022-08-03T21:16:02.313Z,22.50
2022-08-03T21:18:51.244Z,22.50
2022-08-03T22:35:28.000Z,21.40
2022-08-03T22:37:57.245Z,21.30
2022-08-03T22:40:24.172Z,21.30
2022-08-03T22:42:52.643Z,21.30
2022-08-03T22:46:07.979Z,21.30
2022-08-03T22:48:08.229Z,21.20
2022-08-03T22:50:35.587Z,21.30
2022-08-03T22:53:03.486Z,21.20
2022-08-03T22:55:31.015Z,21.20
2022-08-03T22:57:57.984Z,21.20
2022-08-03T23:00:25.204Z,21.20
2022-08-03T23:02:54.724Z,21.20
2022-08-03T23:06:00.476Z,21.10
2022-08-03T23:08:14.606Z,21.10
2022-08-03T23:10:46.724Z,21.10
2022-08-03T23:13:16.623Z,21.00
2022-08-03T23:15:55.120Z,21.00
2022-08-03T23:18:23.392Z,21.00
2022-08-03T23:20:54.110Z,21.00
2022-08-03T23:23:23.564Z,20.90
2022-08-03T23:25:51.451Z,20.90
2022-08-03T23:28:19.212Z,20.90
2022-08-03T23:30:46.845Z,20.90
2022-08-03T23:33:16.388Z,20.90
2022-08-03T23:36:18.817Z,20.80
2022-08-03T23:38:47.681Z,20.80
2022-08-03T23:41:17.494Z,20.80
2022-08-03T23:43:51.757Z,20.80
2022-08-03T23:46:25.807Z,20.80
2022-08-03T23:48:53.811Z,20.80
2022-08-03T23:51:29.573Z,20.80
2022-08-03T23:54:41.256Z,20.70
2022-08-03T23:57:19.435Z,20.70
